Terminal Aerodrome Forecast
Issued by NWS

Current Version | Previous Version | Text Only | Print | Product List | Glossary On
Versions: 1 2 3 4 5 6 7 8 9 10 11 12 13
000
FTUS45 KSLC 260539
TAFOGD
TAF
KOGD 260539Z 2606/2706 17006KT P6SM SKC
     FM262000 27005KT P6SM SCT100 SCT120
     FM270300 17006KT P6SM SCT100 BKN120=

USA.gov is the U.S. government's official web portal to all federal, state and local government web resources and services.